Terminal Aerodrome Forecast
Issued by NWS Jackson, MS

Home | Current Version | Previous Version | Text Only | Print | Product List | Glossary On
Versions: 1 2 3 4 5 6 7 8 9 10 11 12 13 14 15 16 17
692
FTUS44 KMEG 201730
TAFTUP
TAF
KTUP 201730Z 2018/2118 20010G16KT P6SM OVC012
     FM201900 20010G16KT P6SM SCT015 OVC250
     FM210000 20002KT P6SM FEW010 BKN150
     FM210300 21002KT 4SM BR SCT003
      TEMPO 2105/2109 1SM -DZ BR OVC002
     FM210900 19005KT 2SM BR VCTS OVC002CB
      TEMPO 2112/2115 VRB10KT 3SM -TSRA FEW005 OVC015CB
     FM211500 17008KT P6SM VCTS BKN025CB=

USA.gov is the U.S. government's official web portal to all federal, state and local government web resources and services.